Latest Coastal Weather Observations for Cape Flattery

IDQ60701

Issued at 7:12 pm EST Wednesday 25 May 2016 (issued every 10 minutes, with the page automatically refreshed every 10 minutes)

About coastal observations | Map of coastal stations | Coastal observations for QLD | Marine services | Other Formats
Station Details ID: 031213 Name: CAPE FLATTERY Lat: -14.97 Lon: 145.31 Height: 18.5 m
Data from the previous 72 hours. | See also: Recent months at Cape Flattery
Date/Time
EST
Temp

°C
Wind Pressure Rain
since 9am
mm
Weather Cloud Vis
km
Sea
Height
m
Swell
Dir
 
Speed
knots
Gust
knots
hPa Trend Height
m
Period
s
Dir
25/07:00pm 25.9 SE 13 17 1014.0 - 0.0 - - - - - - -
25/06:30pm 25.6 SE 13 19 1013.7 - 0.0 - - - - - - -
25/06:00pm 25.7 SSE 13 19 1013.4 - 0.0 - - - - - - -
25/05:30pm 25.6 SSE 12 17 1013.0 - 0.0 - - - - - - -
25/05:00pm 26.0 SSE 15 19 1012.8 - 0.0 - - - - - - -
25/04:30pm 25.8 SSE 15 21 1012.6 - 0.0 - - - - - - -
25/04:00pm 26.0 SSE 16 21 1012.5 - 0.0 - - - - - - -
25/03:30pm 26.5 SSE 16 21 1012.4 - 0.0 - - - - - - -
25/03:00pm 27.4 SSE 16 21 1012.6 - 0.0 - - - - - - -
25/02:30pm 27.1 SSE 15 20 1012.8 - 0.0 - - - - - - -
25/02:00pm 27.9 SE 13 17 1013.0 - 0.0 - - - - - - -
25/01:30pm 28.0 SE 14 16 1013.3 - 0.0 - - - - - - -
25/01:00pm 27.8 SE 11 16 1013.9 - 0.0 - - - - - - -
25/12:30pm 28.6 SE 11 15 1014.2 - 0.0 - - - - - - -
25/12:00pm 28.3 SE 13 17 1014.5 - 0.0 - - - - - - -
25/11:30am 28.2 SE 13 17 1014.5 - 0.0 - - - - - - -
25/11:00am 28.5 SE 12 17 1014.7 - 0.0 - - - - - - -
25/10:30am 27.8 SE 14 19 1014.7 - 0.0 - - - - - - -
25/10:00am 26.9 SE 11 16 1014.5 - 0.0 - - - - - - -
25/09:30am 27.1 SE 13 16 1014.9 - 0.0 - - - - - - -
25/09:00am 27.1 SE 12 17 1015.0 - 0.0 - - - - - - -
25/08:30am 26.2 SE 10 13 1014.9 - 0.0 - - - - - - -
25/08:00am 25.4 ESE 10 15 1014.7 - 0.0 - - - - - - -
25/07:30am 24.7 ESE 11 15 1014.4 - 0.0 - - - - - - -
25/07:00am 24.0 ESE 11 15 1014.3 - 0.0 - - - - - - -
25/06:30am 24.4 E 10 15 1014.3 - 0.0 - - - - - - -
25/06:00am 24.1 ESE 11 16 1013.9 - 0.0 - - - - - - -
25/05:30am 25.0 SE 11 17 1013.6 - 0.0 - - - - - - -
25/05:00am 25.6 SE 14 19 1013.0 - 0.0 - - - - - - -
25/04:30am 25.8 SSE 14 18 1013.5 - 0.0 - - - - - - -
25/04:00am 25.8 SE 15 20 1013.3 - 0.0 - - - - - - -
25/03:30am 25.7 SE 14 21 1013.3 - 0.0 - - - - - - -
25/03:00am 25.7 SE 14 20 1013.4 - 0.0 - - - - - - -
25/02:30am 25.8 SE 15 19 1013.7 - 0.0 - - - - - - -
25/02:00am 25.9 SE 14 19 1014.1 - 0.0 - - - - - - -
25/01:30am 26.0 SE 17 21 1014.5 - 0.0 - - - - - - -
25/01:00am 25.4 SE 16 22 1014.7 - 0.0 - - - - - - -
25/12:30am 25.2 SE 17 22 1014.8 - 0.0 - - - - - - -
25/12:00am 25.8 SE 16 23 1014.8 - 0.0 - - - - - - -
 
Date/Time
EST
Temp

°C
Wind Pressure Rain
since 9am
mm
Weather Cloud Vis
km
Sea
Height
m
Swell
Dir
 
Speed
knots
Gust
knots
hPa Trend Height
m
Period
s
Dir
24/11:30pm 26.1 SE 15 19 1015.0 - 0.0 - - - - - - -
24/11:00pm 26.1 SE 15 20 1015.2 - 0.0 - - - - - - -
24/10:30pm 25.9 SE 16 22 1015.3 - 0.0 - - - - - - -
24/10:00pm 26.2 SE 13 17 1015.3 - 0.0 - - - - - - -
24/09:30pm 26.2 SE 15 20 1014.9 - 0.0 - - - - - - -
24/09:00pm 26.1 SE 14 18 1014.7 - 0.0 - - - - - - -
24/08:30pm 26.0 SE 12 17 1014.8 - 0.0 - - - - - - -
24/08:00pm 26.2 SE 13 17 1014.7 - 0.0 - - - - - - -
24/07:30pm 26.2 SE 13 21 1014.2 - 0.0 - - - - - - -
24/07:00pm 26.2 SE 14 21 1013.6 - 0.0 - - - - - - -
24/06:30pm 26.1 SE 13 19 1013.4 - 0.0 - - - - - - -
24/06:00pm 26.2 SE 14 19 1013.2 - 0.0 - - - - - - -
24/05:30pm 26.3 SE 14 19 1013.3 - 0.0 - - - - - - -
24/05:00pm 26.3 SE 14 19 1012.8 - 0.0 - - - - - - -
24/04:30pm 26.4 SE 14 21 1012.9 - 0.0 - - - - - - -
24/04:00pm 26.9 SE 16 22 1012.7 - 0.0 - - - - - - -
24/03:30pm 27.6 SE 16 21 1012.9 - 0.0 - - - - - - -
24/03:00pm 28.0 SE 15 20 1013.0 - 0.0 - - - - - - -
24/02:30pm 27.5 SE 16 21 1013.1 - 0.0 - - - - - - -
24/02:00pm 27.8 SE 13 17 1013.5 - 0.0 - - - - - - -
24/01:30pm 28.0 SE 14 18 1013.8 - 0.0 - - - - - - -
24/01:00pm 28.0 SE 16 20 1014.2 - 0.0 - - - - - - -
24/12:30pm 28.3 SE 16 22 1014.4 - 0.0 - - - - - - -
24/12:00pm 28.0 SE 15 22 1014.7 - 0.0 - - - - - - -
24/11:30am 26.8 SE 15 21 1015.2 - 0.0 - - - - - - -
24/11:00am 27.4 SE 17 23 1015.3 - 0.0 - - - - - - -
24/10:30am 27.3 SSE 15 20 1015.6 - 0.0 - - - - - - -
24/10:00am 27.4 SE 14 20 1015.5 - 0.0 - - - - - - -
24/09:30am 27.3 SE 15 21 1015.4 - 0.0 - - - - - - -
24/09:00am 27.3 SE 13 20 1015.4 - 17.6 Recent precip. - - - - - -
24/08:30am 27.2 SE 13 17 1014.9 - 17.6 - - - - - - -
24/08:00am 26.1 SE 11 14 1014.5 - 17.4 - - - - - - -
24/07:30am 25.6 SE 12 15 1014.3 - 17.4 - - - - - - -
24/07:00am 24.6 ESE 7 11 1014.2 - 17.4 - - - - - - -
24/06:30am 24.6 ESE 14 22 1014.0 - 17.4 - - - - - - -
24/06:00am 25.1 ESE 10 13 1013.7 - 17.4 - - - - - - -
24/05:30am 24.2 SE 11 16 1013.7 - 17.4 - - - - - - -
24/05:22am 24.3 SE 15 25 1013.8 - 17.4 - - - - - - -
24/05:00am 25.5 ESE 11 15 1013.6 - 17.4 - - - - - - -
24/04:30am 25.4 ESE 11 16 1013.2 - 17.4 - - - - - - -
24/04:00am 25.5 ESE 12 19 1013.3 - 17.4 - - - - - - -
24/03:30am 25.1 ESE 11 15 1013.3 - 17.4 - - - - - - -
24/03:00am 25.4 ESE 13 20 1013.2 - 17.4 - - - - - - -
24/02:30am 25.3 ESE 14 20 1013.3 - 17.4 - - - - - - -
24/02:00am 25.3 ESE 13 19 1013.3 - 17.4 - - - - - - -
24/01:30am 25.3 ESE 14 19 1013.7 - 17.4 - - - - - - -
24/01:00am 25.1 ESE 13 19 1013.8 - 17.4 - - - - - - -
24/12:30am 24.6 ESE 16 26 1014.0 - 17.4 - - - - - - -
24/12:26am 25.2 SE 15 26 1014.0 - 17.4 - - - - - - -
24/12:00am 24.5 SE 16 23 1014.2 - 17.4 - - - - - - -
 
Date/Time
EST
Temp

°C
Wind Pressure Rain
since 9am
mm
Weather Cloud Vis
km
Sea
Height
m
Swell
Dir
 
Speed
knots
Gust
knots
hPa Trend Height
m
Period
s
Dir
23/11:30pm 25.0 ESE 13 19 1014.4 - 17.4 - - - - - - -
23/11:00pm 24.6 ESE 11 15 1014.4 - 17.4 - - - - - - -
23/10:30pm 24.7 ESE 13 19 1014.4 - 17.4 - - - - - - -
23/10:00pm 24.4 ESE 12 16 1014.6 - 17.4 - - - - - - -
23/09:30pm 24.1 ESE 13 18 1014.7 - 17.4 - - - - - - -
23/09:00pm 23.6 E 11 16 1014.8 - 17.4 - - - - - - -
23/08:30pm 23.9 E 11 17 1014.8 - 17.4 - - - - - - -
23/08:00pm 23.7 E 12 17 1014.6 - 17.4 - - - - - - -
23/07:30pm 23.6 ESE 11 17 1014.2 - 17.4 - - - - - - -
23/07:00pm 24.2 ESE 14 23 1013.6 - 17.4 - - - - - - -
23/06:30pm 24.0 ESE 13 19 1013.0 - 17.4 - - - - - - -
23/06:00pm 23.4 ESE 13 21 1013.5 - 17.4 Recent precip. - - - - - -
23/05:30pm 23.1 ESE 13 21 1013.7 - 17.4 - - - - - - -
23/05:00pm 23.6 ESE 12 16 1013.8 - 17.2 - - - - - - -
23/04:30pm 23.7 ESE 10 14 1013.6 - 16.6 - - - - - - -
23/04:00pm 23.9 SE 12 18 1013.4 - 16.2 - - - - - - -
23/03:30pm 23.7 SE 15 22 1013.3 - 15.4 - - - - - - -
23/03:00pm 23.8 SE 16 22 1013.1 - 15.0 Rain - - - - - -
23/02:30pm 24.1 ESE 11 19 1013.2 - 14.2 - - - - - - -
23/02:00pm 23.8 SE 10 18 1013.0 - 13.6 - - - - - - -
23/01:30pm 22.5 ESE 6 8 1013.3 - 13.0 - - - - - - -
23/01:00pm 23.3 ESE 8 14 1013.9 - 11.8 - - - - - - -
23/12:30pm 22.3 ESE 9 18 1014.4 - 10.6 - - - - - - -
23/12:00pm 23.7 ESE 10 13 1014.4 - 9.4 Rain - - - - - -
23/11:30am 22.4 E 13 19 1015.0 - 8.6 - - - - - - -
23/11:00am 24.5 SE 12 17 1015.4 - 6.4 - - - - - - -
23/10:30am 24.4 SE 12 18 1015.2 - 3.8 - - - - - - -
23/10:00am 24.7 SE 13 17 1015.2 - 2.6 - - - - - - -
23/09:30am 25.0 SE 14 19 1015.1 - 1.0 - - - - - - -
23/09:00am 25.2 SE 12 17 1014.8 - 30.0 Rain - - - - - -
23/08:30am 25.3 SE 13 17 1014.4 - 29.4 - - - - - - -
23/08:00am 25.0 SE 15 21 1013.6 - 29.0 - - - - - - -
23/07:30am 25.5 SE 14 19 1013.6 - 28.6 - - - - - - -
23/07:00am 25.0 SE 11 18 1013.5 - 28.4 - - - - - - -
23/06:30am 25.3 SE 13 20 1013.1 - 28.4 - - - - - - -
23/06:00am 25.2 ESE 11 18 1012.8 - 28.4 Recent precip. - - - - - -
23/05:30am 24.6 SE 14 20 1012.6 - 28.4 - - - - - - -
23/05:00am 25.8 ESE 11 16 1012.4 - 27.6 - - - - - - -
23/04:30am 26.1 SE 13 21 1012.4 - 27.6 - - - - - - -
23/04:00am 25.9 SE 13 17 1012.2 - 27.6 - - - - - - -
23/03:30am 25.7 SE 11 14 1012.0 - 27.6 - - - - - - -
23/03:00am 25.5 ESE 11 15 1012.2 - 27.6 Recent precip. - - - - - -
23/02:30am 25.9 ESE 13 19 1012.3 - 27.6 - - - - - - -
23/02:00am 25.8 SE 10 15 1012.7 - 27.4 - - - - - - -
23/01:30am 25.6 SE 13 19 1012.8 - 27.4 - - - - - - -
23/01:00am 25.8 ESE 11 16 1013.0 - 27.4 - - - - - - -
23/12:30am 25.5 ESE 11 16 1013.1 - 27.4 - - - - - - -
23/12:00am 25.4 E 11 17 1013.4 - 27.4 - - - - - - -
 
Date/Time
EST
Temp

°C
Wind Pressure Rain
since 9am
mm
Weather Cloud Vis
km
Sea
Height
m
Swell
Dir
 
Speed
knots
Gust
knots
hPa Trend Height
m
Period
s
Dir
22/11:30pm 25.4 ESE 13 17 1013.3 - 27.4 - - - - - - -
22/11:00pm 25.1 ESE 13 18 1013.9 - 27.4 - - - - - - -
22/10:30pm 24.8 ESE 14 21 1014.4 - 27.0 - - - - - - -
22/10:00pm 25.3 E 9 15 1014.6 - 25.6 - - - - - - -
22/09:30pm 25.0 ESE 10 14 1014.7 - 25.6 - - - - - - -
22/09:04pm 25.1 ESE 15 27 1014.8 - 25.4 - - - - - - -
22/09:00pm 25.5 ESE 13 19 1014.8 - 25.2 - - - - - - -
22/08:30pm 25.8 ESE 13 19 1014.7 - 25.2 - - - - - - -
22/08:00pm 25.5 ESE 14 20 1014.5 - 25.2 - - - - - - -
22/07:30pm 25.3 ESE 14 20 1014.2 - 25.2 - - - - - - -

Other Formats:

Comma delimited format used in spreadsheet applications
http://www.bom.gov.au/fwo/IDQ60701/IDQ60701.94188.axf

JavaScript Object Notation format (JSON) in row-major order
http://www.bom.gov.au/fwo/IDQ60701/IDQ60701.94188.json